Time;durP1;ratioP1;P1;durP2;ratioP2;P2;SDS_P1;SDS_P2;PMS_P1;PMS_P2;Temp;Humidity;BMP_temperature;BMP_pressure;BME280_temperature;BME280_humidity;BME280_pressure;Samples;Min_cycle;Max_cycle;Signal;HPM_P1;HPM_P2
2023/10/09 00:02:24;;;;;;;12.77;6.13;;;13.90;99.90;;;;;;5050969;28;20577;-57
2023/10/09 00:04:51;;;;;;;12.18;6.05;;;13.90;99.90;;;;;;5054605;28;20048;-57
2023/10/09 00:07:17;;;;;;;12.05;6.55;;;13.90;99.90;;;;;;5053743;28;20040;-57
2023/10/09 00:09:50;;;;;;;10.60;6.35;;;13.90;99.90;;;;;;5052911;28;20035;-57
2023/10/09 00:12:22;;;;;;;13.65;7.25;;;13.90;99.90;;;;;;5053446;28;20087;-58
2023/10/09 00:14:50;;;;;;;16.75;7.55;;;13.90;99.90;;;;;;5053431;28;20044;-58
2023/10/09 00:19:47;;;;;;;12.27;7.47;;;13.90;99.90;;;;;;5057387;28;20481;-58
2023/10/09 00:24:49;;;;;;;17.40;7.85;;;13.90;99.90;;;;;;5059238;28;20250;-57
2023/10/09 00:27:15;;;;;;;17.02;7.93;;;13.90;99.90;;;;;;5055839;28;20040;-57
2023/10/09 00:29:44;;;;;;;14.63;7.63;;;13.90;99.90;;;;;;5054733;28;20036;-57
2023/10/09 00:32:26;;;;;;;15.75;8.95;;;13.90;99.90;;;;;;5054557;28;20062;-58
2023/10/09 00:34:52;;;;;;;16.70;8.70;;;13.90;99.90;;;;;;5052527;28;20073;-57
2023/10/09 00:37:25;;;;;;;18.38;9.02;;;13.90;99.90;;;;;;5050312;28;20079;-57
2023/10/09 00:39:57;;;;;;;16.45;8.15;;;13.90;99.90;;;;;;5050773;28;20073;-56
2023/10/09 00:42:30;;;;;;;13.98;9.63;;;13.90;99.90;;;;;;5053803;28;20475;-57
2023/10/09 00:45:04;;;;;;;16.30;8.85;;;13.90;99.90;;;;;;5054038;28;20037;-58
2023/10/09 00:47:34;;;;;;;18.33;9.25;;;13.90;99.90;;;;;;5052184;28;20036;-58
2023/10/09 00:50:25;;;;;;;16.20;8.80;;;13.90;99.90;;;;;;5055152;28;20041;-58
2023/10/09 00:53:01;;;;;;;11.98;8.85;;;13.80;99.90;;;;;;5046523;28;20037;-55
2023/10/09 00:55:37;;;;;;;18.40;9.65;;;13.90;99.90;;;;;;5053752;28;20067;-57
2023/10/09 00:58:09;;;;;;;24.02;9.85;;;13.90;99.90;;;;;;5055396;28;20048;-56
2023/10/09 01:06:28;;;;;;;25.20;11.57;;;13.80;99.90;;;;;;5060199;28;20049;-58
2023/10/09 01:08:43;;;;;;;20.38;10.65;;;13.80;99.90;;;;;;5046663;28;20111;-58
2023/10/09 01:11:21;;;;;;;17.90;10.70;;;13.80;99.90;;;;;;5056221;28;20528;-57
2023/10/09 01:16:17;;;;;;;23.75;10.82;;;13.70;99.90;;;;;;5050162;28;20147;-57
2023/10/09 01:18:44;;;;;;;24.08;11.10;;;13.70;99.90;;;;;;5053430;28;20033;-55
2023/10/09 01:21:14;;;;;;;19.25;10.20;;;13.70;99.90;;;;;;5057012;28;20045;-55
2023/10/09 01:23:58;;;;;;;20.75;11.07;;;13.70;99.90;;;;;;5053622;28;20084;-55
2023/10/09 01:26:24;;;;;;;21.75;12.80;;;13.70;99.90;;;;;;5052128;28;20040;-53
2023/10/09 01:28:50;;;;;;;;;;;13.70;99.90;;;;;;5054916;28;20459;-54
2023/10/09 01:31:16;;;;;;;25.80;12.02;;;13.70;99.90;;;;;;5054516;28;19924;-54
2023/10/09 01:33:41;;;;;;;21.33;12.25;;;13.70;99.90;;;;;;5054775;28;20408;-52
2023/10/09 01:36:14;;;;;;;20.52;12.10;;;13.70;99.90;;;;;;5055271;28;20050;-53
2023/10/09 01:38:44;;;;;;;18.20;12.02;;;13.70;99.90;;;;;;5057932;28;20123;-54
2023/10/09 01:41:19;;;;;;;23.08;11.73;;;13.70;99.90;;;;;;5058516;28;20033;-53
2023/10/09 01:43:45;;;;;;;20.75;11.57;;;13.70;99.90;;;;;;5057254;28;20055;-54
2023/10/09 01:46:11;;;;;;;21.90;12.52;;;13.70;99.90;;;;;;5059624;28;20036;-53
2023/10/09 01:48:41;;;;;;;;;;;13.70;99.90;;;;;;5057552;28;20466;-53
2023/10/09 01:51:17;;;;;;;22.30;12.80;;;13.70;99.90;;;;;;5057830;28;19916;-55
2023/10/09 01:53:43;;;;;;;23.88;13.38;;;13.70;99.90;;;;;;5052795;28;20057;-57
2023/10/09 01:56:17;;;;;;;22.63;12.68;;;13.70;99.90;;;;;;5053199;28;20492;-54
2023/10/09 01:58:47;;;;;;;18.83;13.30;;;13.70;99.90;;;;;;5054503;28;20060;-55
2023/10/09 02:01:14;;;;;;;20.58;13.23;;;13.70;99.90;;;;;;5053307;28;20032;-55
2023/10/09 02:03:42;;;;;;;25.30;14.48;;;13.70;99.90;;;;;;5056129;28;20048;-56
2023/10/09 02:06:26;;;;;;;23.70;13.98;;;13.70;99.90;;;;;;5055936;28;20051;-55
2023/10/09 02:08:53;;;;;;;25.65;14.18;;;13.70;99.90;;;;;;5055546;28;20337;-56
2023/10/09 02:14:15;;;;;;;31.40;14.35;;;13.70;99.90;;;;;;5058492;28;20102;-58
2023/10/09 02:16:41;;;;;;;26.45;14.55;;;13.70;99.90;;;;;;5060299;28;20133;-57
2023/10/09 02:19:30;;;;;;;;;;;13.70;99.90;;;;;;5061306;28;20044;-57
2023/10/09 02:21:56;;;;;;;23.63;15.32;;;13.70;99.90;;;;;;5063563;28;19920;-56
2023/10/09 02:24:42;;;;;;;28.02;16.80;;;13.70;99.90;;;;;;5060420;28;20037;-57
2023/10/09 02:27:08;;;;;;;33.63;18.02;;;13.70;99.90;;;;;;5058806;28;20036;-56
2023/10/09 02:29:38;;;;;;;29.85;16.35;;;13.70;99.90;;;;;;5053581;28;20415;-57
2023/10/09 02:32:13;;;;;;;34.03;18.42;;;13.70;99.90;;;;;;5055559;28;20477;-55
2023/10/09 02:34:39;;;;;;;28.88;17.40;;;13.70;99.90;;;;;;5059141;28;20041;-56
2023/10/09 02:37:06;;;;;;;27.02;16.45;;;13.70;99.90;;;;;;5053744;28;20039;-58
2023/10/09 02:39:43;;;;;;;33.72;18.98;;;13.70;99.90;;;;;;5054206;28;20412;-57
2023/10/09 02:44:46;;;;;;;23.45;16.13;;;13.70;99.90;;;;;;5055330;28;20041;-58
2023/10/09 02:47:24;;;;;;;31.23;17.63;;;13.70;99.90;;;;;;5053925;28;20056;-56
2023/10/09 02:49:50;;;;;;;33.30;18.02;;;13.70;99.90;;;;;;5054938;28;20541;-57
2023/10/09 02:52:24;;;;;;;32.75;19.17;;;13.70;99.90;;;;;;5036968;28;20428;-56
2023/10/09 02:54:59;;;;;;;28.80;17.35;;;13.70;99.90;;;;;;5049263;28;20044;-57
2023/10/09 02:57:36;;;;;;;32.53;17.92;;;13.70;99.90;;;;;;5058273;28;20033;-57
2023/10/09 03:00:03;;;;;;;36.75;18.58;;;13.70;99.90;;;;;;5060140;28;20033;-55
2023/10/09 03:02:31;;;;;;;32.03;19.25;;;13.70;99.90;;;;;;5058317;28;20064;-56
2023/10/09 03:04:58;;;;;;;32.00;19.77;;;13.70;99.90;;;;;;5061658;28;20048;-58
2023/10/09 03:07:24;;;;;;;33.47;19.85;;;13.70;99.90;;;;;;5054493;28;20037;-57
2023/10/09 03:09:50;;;;;;;33.30;20.60;;;13.70;99.90;;;;;;5060572;28;20033;-57
2023/10/09 03:12:18;;;;;;;40.05;19.95;;;13.70;99.90;;;;;;5054990;28;20125;-56
2023/10/09 03:14:44;;;;;;;33.40;20.60;;;13.80;99.90;;;;;;5054066;28;20433;-56
2023/10/09 03:17:13;;;;;;;45.33;23.08;;;13.80;99.90;;;;;;5058642;28;20399;-57
2023/10/09 03:19:39;;;;;;;44.33;24.65;;;13.80;99.90;;;;;;5054353;28;20068;-57
2023/10/09 03:22:11;;;;;;;;;;;13.90;99.90;;;;;;5053187;28;20131;-53
2023/10/09 03:24:44;;;;;;;47.60;26.75;;;13.90;99.90;;;;;;5050781;28;19991;-58
2023/10/09 03:27:11;;;;;;;51.25;27.98;;;13.90;99.90;;;;;;5054012;28;20076;-58
2023/10/09 03:29:37;;;;;;;;;;;14.00;99.90;;;;;;5054976;28;20043;-57
2023/10/09 03:32:03;;;;;;;41.70;26.08;;;14.00;99.90;;;;;;5054404;28;20360;-56
2023/10/09 03:34:30;;;;;;;54.78;29.23;;;14.10;99.90;;;;;;5054951;28;20041;-57
2023/10/09 03:37:06;;;;;;;45.28;27.77;;;14.10;99.90;;;;;;5054829;28;20518;-56
2023/10/09 03:39:39;;;;;;;50.53;27.63;;;14.20;99.90;;;;;;5056762;28;20064;-57
2023/10/09 03:42:05;;;;;;;48.63;28.95;;;14.20;99.90;;;;;;5058820;28;20449;-58
2023/10/09 03:44:38;;;;;;;57.85;29.45;;;14.30;99.90;;;;;;5060383;28;20086;-54
2023/10/09 03:47:05;;;;;;;49.13;28.23;;;14.30;99.90;;;;;;5064894;28;20046;-55
2023/10/09 03:49:31;;;;;;;57.42;29.23;;;14.40;99.90;;;;;;5059029;28;20139;-54
2023/10/09 03:51:59;;;;;;;57.28;29.88;;;14.40;99.90;;;;;;5059560;28;20045;-54
2023/10/09 03:54:25;;;;;;;48.58;27.38;;;14.40;99.90;;;;;;5059174;28;20041;-54
2023/10/09 03:56:50;;;;;;;51.92;29.92;;;14.50;99.90;;;;;;5047688;28;20098;-55
2023/10/09 03:59:19;;;;;;;48.75;28.67;;;14.50;99.90;;;;;;5054797;28;20032;-53
2023/10/09 04:01:46;;;;;;;52.35;28.02;;;14.50;99.90;;;;;;5050427;28;20048;-57
2023/10/09 04:04:14;;;;;;;59.22;30.70;;;14.60;99.90;;;;;;5051108;28;20045;-53
2023/10/09 04:06:40;;;;;;;57.35;29.88;;;14.60;99.90;;;;;;5052700;28;20033;-54
2023/10/09 04:11:46;;;;;;;50.33;30.13;;;14.60;99.90;;;;;;5052848;28;20067;-56
2023/10/09 04:14:23;;;;;;;56.10;31.02;;;14.60;99.90;;;;;;5051595;28;20044;-53
2023/10/09 04:16:52;;;;;;;53.47;30.38;;;14.60;99.90;;;;;;5055239;28;20036;-52
2023/10/09 04:19:21;;;;;;;50.60;28.70;;;14.70;99.90;;;;;;5054887;28;20032;-55
2023/10/09 04:21:48;;;;;;;50.15;28.25;;;14.70;99.90;;;;;;5058093;28;20115;-55
2023/10/09 04:26:45;;;;;;;47.10;28.08;;;14.70;99.90;;;;;;5058866;28;20229;-57
2023/10/09 04:29:26;;;;;;;52.67;29.58;;;14.70;99.90;;;;;;5054788;28;20040;-57
2023/10/09 04:31:54;;;;;;;51.17;29.40;;;14.70;99.90;;;;;;5058617;28;20040;-55
2023/10/09 04:34:22;;;;;;;50.80;29.08;;;14.70;99.90;;;;;;5058788;28;20051;-56
2023/10/09 04:37:00;;;;;;;53.15;30.73;;;14.70;99.90;;;;;;5053548;28;20036;-57
2023/10/09 04:48:06;;;;;;;56.03;29.77;;;14.80;99.90;;;;;;5063643;28;20048;-57
2023/10/09 04:53:04;;;;;;;55.63;30.63;;;14.80;99.90;;;;;;5064859;28;20045;-58
2023/10/09 04:55:38;;;;;;;52.50;30.20;;;14.80;99.90;;;;;;5062829;28;20076;-56
2023/10/09 05:03:24;;;;;;;50.88;30.58;;;14.80;99.90;;;;;;5064692;28;20119;-56
2023/10/09 05:05:58;;;;;;;53.83;32.20;;;14.80;99.90;;;;;;5061305;28;20040;-56
2023/10/09 05:16:15;;;;;;;56.03;32.58;;;14.90;99.90;;;;;;5062848;28;20123;-56
2023/10/09 05:18:41;;;;;;;56.47;33.65;;;14.90;99.90;;;;;;5060901;28;20044;-58
2023/10/09 05:23:48;;;;;;;54.78;31.77;;;15.00;99.90;;;;;;5066342;28;20299;-58
2023/10/09 05:29:18;;;;;;;54.78;32.70;;;15.10;99.90;;;;;;5055379;28;20463;-58
2023/10/09 05:31:55;;;;;;;57.92;32.00;;;15.00;99.90;;;;;;5063930;28;20035;-56
2023/10/09 05:34:21;;;;;;;49.30;32.15;;;15.00;99.90;;;;;;5067555;28;20043;-57
2023/10/09 05:36:48;;;;;;;50.70;32.28;;;15.10;99.90;;;;;;5068985;28;20032;-57
2023/10/09 05:39:40;;;;;;;;;;;15.10;99.90;;;;;;5068776;28;20116;-57
2023/10/09 05:42:10;;;;;;;52.92;32.13;;;15.10;99.90;;;;;;5070866;28;20359;-54
2023/10/09 05:47:29;;;;;;;54.55;31.90;;;15.20;99.90;;;;;;5051260;28;20049;-57
2023/10/09 05:49:57;;;;;;;54.38;32.05;;;15.20;99.90;;;;;;5055407;28;20416;-57
2023/10/09 06:08:38;;;;;;;50.95;31.08;;;15.30;99.90;;;;;;5068035;28;20052;-56
2023/10/09 06:11:38;;;;;;;53.63;31.60;;;15.30;99.90;;;;;;5068946;28;20048;-57
2023/10/09 06:14:49;;;;;;;49.90;28.13;;;15.40;99.90;;;;;;5063829;28;20053;-57
2023/10/09 06:16:42;;;;;;;54.95;29.13;;;15.30;99.90;;;;;;5055433;28;20057;-58
2023/10/09 06:19:26;;;;;;;47.78;28.40;;;15.40;99.90;;;;;;5067618;28;20556;-58
2023/10/09 06:24:43;;;;;;;47.63;27.60;;;15.50;99.90;;;;;;5064291;28;20072;-58
2023/10/09 06:29:38;;;;;;;48.35;27.88;;;15.50;99.90;;;;;;5064529;28;20052;-53
2023/10/09 06:34:56;;;;;;;41.22;26.65;;;15.60;99.90;;;;;;5054745;28;20044;-55
2023/10/09 06:42:43;;;;;;;43.08;24.88;;;15.60;99.90;;;;;;5061136;28;20051;-55
2023/10/09 06:47:53;;;;;;;38.90;22.90;;;15.70;99.90;;;;;;5047081;28;20551;-56
2023/10/09 06:55:51;;;;;;;34.13;21.73;;;15.80;99.90;;;;;;5062822;28;20041;-58
2023/10/09 06:58:26;;;;;;;38.75;21.42;;;15.80;99.90;;;;;;5051983;28;20385;-56
2023/10/09 07:03:34;;;;;;;42.97;22.75;;;15.80;99.90;;;;;;5059868;28;20040;-55
2023/10/09 07:06:23;;;;;;;32.03;20.92;;;15.90;99.90;;;;;;5050517;28;20045;-57
2023/10/09 07:09:15;;;;;;;34.10;20.55;;;15.90;99.90;;;;;;5054848;28;20040;-58
2023/10/09 07:16:59;;;;;;;32.47;19.70;;;16.00;99.90;;;;;;5066766;28;20052;-58
2023/10/09 07:20:13;;;;;;;34.65;19.92;;;16.00;99.90;;;;;;5064078;28;20040;-58
2023/10/09 07:27:43;;;;;;;28.65;16.88;;;16.10;99.90;;;;;;5063309;28;20381;-58
2023/10/09 07:38:09;;;;;;;28.48;16.52;;;16.20;99.90;;;;;;5052863;28;20037;-57
2023/10/09 07:43:28;;;;;;;28.65;15.18;;;16.20;99.90;;;;;;5052470;28;20040;-59
2023/10/09 07:48:27;;;;;;;21.30;15.45;;;16.20;99.90;;;;;;5052962;28;20127;-57
2023/10/09 07:50:59;;;;;;;25.02;14.45;;;16.30;99.90;;;;;;5053201;28;20471;-58
2023/10/09 07:53:28;;;;;;;30.52;14.35;;;16.30;99.90;;;;;;5053509;28;20119;-57
2023/10/09 07:56:06;;;;;;;25.50;15.80;;;16.30;99.90;;;;;;5054739;28;20044;-58
2023/10/09 07:58:45;;;;;;;27.73;16.20;;;16.30;99.90;;;;;;5055875;28;20076;-56
2023/10/09 08:04:05;;;;;;;30.75;14.77;;;16.30;99.90;;;;;;5061260;28;20084;-58
2023/10/09 08:06:42;;;;;;;25.98;14.02;;;16.40;99.90;;;;;;5053793;28;20044;-58
2023/10/09 08:19:54;;;;;;;28.77;14.57;;;16.50;99.90;;;;;;5037711;28;20897;-56
2023/10/09 08:24:57;;;;;;;30.27;14.68;;;16.50;99.90;;;;;;5040039;28;20053;-56
2023/10/09 08:33:00;;;;;;;24.95;14.52;;;16.60;99.90;;;;;;5041572;28;20045;-57
2023/10/09 08:35:49;;;;;;;27.35;14.20;;;16.60;99.90;;;;;;5039900;28;20049;-58
2023/10/09 08:38:23;;;;;;;18.65;13.55;;;16.70;99.90;;;;;;5039658;28;20650;-58
2023/10/09 08:40:50;;;;;;;25.60;13.18;;;16.70;99.90;;;;;;5044854;28;20044;-58
2023/10/09 08:43:21;;;;;;;25.33;12.70;;;16.70;99.90;;;;;;5041946;28;20095;-57
2023/10/09 08:45:53;;;;;;;28.20;13.82;;;16.80;99.90;;;;;;5043541;28;20053;-59
2023/10/09 08:48:21;;;;;;;26.27;14.02;;;16.80;99.90;;;;;;5040801;28;20037;-58
2023/10/09 08:50:50;;;;;;;28.33;13.98;;;16.80;99.90;;;;;;5040735;28;20049;-57
2023/10/09 08:53:16;;;;;;;23.48;13.45;;;16.80;99.90;;;;;;5041051;28;20632;-57
2023/10/09 08:55:43;;;;;;;19.42;12.93;;;16.80;99.90;;;;;;5043178;28;20033;-59
2023/10/09 08:58:30;;;;;;;26.30;13.27;;;16.90;99.90;;;;;;5047750;28;20519;-58
2023/10/09 09:00:58;;;;;;;;;;;16.90;99.90;;;;;;5051305;28;20504;-58
2023/10/09 09:03:24;;;;;;;25.35;14.25;;;16.90;99.90;;;;;;5048231;28;19917;-58
2023/10/09 09:06:01;;;;;;;22.05;14.55;;;16.90;99.90;;;;;;5044790;28;20037;-58
2023/10/09 09:08:36;;;;;;;28.13;13.40;;;16.90;99.90;;;;;;5039190;28;20045;-58
2023/10/09 09:11:22;;;;;;;21.13;12.40;;;16.90;99.90;;;;;;5040531;28;20048;-57
2023/10/09 09:14:04;;;;;;;24.25;12.43;;;17.00;99.90;;;;;;5040561;28;20041;-58
2023/10/09 09:16:31;;;;;;;26.13;13.38;;;17.00;99.90;;;;;;5040474;28;20048;-58
2023/10/09 09:19:04;;;;;;;24.50;12.00;;;17.00;99.90;;;;;;5043646;28;20056;-58
2023/10/09 09:21:38;;;;;;;21.58;11.52;;;17.10;99.90;;;;;;5044129;28;20099;-60
2023/10/09 09:24:15;;;;;;;22.45;11.40;;;17.10;99.90;;;;;;5038989;28;20268;-62
2023/10/09 09:26:45;;;;;;;24.92;11.73;;;17.10;99.90;;;;;;5038729;28;20110;-59
2023/10/09 09:29:18;;;;;;;24.45;10.95;;;17.10;99.90;;;;;;5038406;28;20111;-59
2023/10/09 09:31:54;;;;;;;23.85;10.50;;;17.10;99.90;;;;;;5039852;28;20109;-59
2023/10/09 09:34:25;;;;;;;24.60;11.30;;;17.10;99.90;;;;;;5041509;28;20406;-59
2023/10/09 09:36:53;;;;;;;18.73;10.02;;;17.10;99.90;;;;;;5044434;28;20057;-59
2023/10/09 09:39:27;;;;;;;23.60;10.35;;;17.10;99.90;;;;;;5040976;28;20207;-59
2023/10/09 09:42:13;;;;;;;24.85;12.07;;;17.10;99.90;;;;;;5040638;28;20115;-59
2023/10/09 09:44:48;;;;;;;23.88;11.48;;;17.10;99.90;;;;;;5048568;28;20534;-59
2023/10/09 09:47:25;;;;;;;24.13;10.55;;;17.00;99.90;;;;;;5038800;28;20272;-60
2023/10/09 09:49:59;;;;;;;21.35;10.77;;;17.00;99.90;;;;;;5041206;28;20262;-58
2023/10/09 09:52:40;;;;;;;22.27;10.02;;;17.00;99.90;;;;;;5040374;28;20055;-59
2023/10/09 09:55:14;;;;;;;25.30;11.00;;;17.00;99.90;;;;;;5042901;28;20044;-60
2023/10/09 09:57:40;;;;;;;23.65;9.80;;;17.00;99.90;;;;;;5039659;28;20137;-59
2023/10/09 10:00:27;;;;;;;22.70;10.43;;;17.00;99.90;;;;;;5020147;28;20110;-59
2023/10/09 10:02:58;;;;;;;18.48;9.75;;;17.00;99.90;;;;;;5047911;28;20669;-59
2023/10/09 10:05:29;;;;;;;22.42;11.10;;;17.00;99.90;;;;;;5037522;28;20132;-60
2023/10/09 10:08:01;;;;;;;24.40;11.30;;;17.00;99.90;;;;;;5040075;28;20551;-59
2023/10/09 10:10:37;;;;;;;25.67;10.98;;;17.00;99.90;;;;;;5039676;28;20128;-59
2023/10/09 10:13:03;;;;;;;22.92;9.65;;;17.00;99.90;;;;;;5045090;28;20051;-59
2023/10/09 10:15:57;;;;;;;17.42;9.25;;;17.00;99.90;;;;;;5043897;28;20080;-59
2023/10/09 10:18:24;;;;;;;20.42;9.80;;;17.00;99.90;;;;;;5044338;28;20029;-59
2023/10/09 10:21:33;;;;;;;19.70;10.13;;;17.00;99.90;;;;;;5043546;28;20033;-60
2023/10/09 10:24:14;;;;;;;19.23;11.00;;;17.00;99.90;;;;;;5046585;28;20108;-59
2023/10/09 10:26:40;;;;;;;20.70;10.10;;;17.10;99.90;;;;;;5044494;28;20581;-57
2023/10/09 10:29:26;;;;;;;25.13;10.07;;;17.10;99.90;;;;;;5044521;28;20049;-59
2023/10/09 10:32:08;;;;;;;22.00;11.68;;;17.10;99.90;;;;;;5040492;28;20053;-59
2023/10/09 10:34:46;;;;;;;23.10;10.95;;;17.20;99.90;;;;;;5042492;28;20064;-59
2023/10/09 10:37:13;;;;;;;21.58;10.57;;;17.30;99.90;;;;;;5046905;28;20048;-60
2023/10/09 10:39:50;;;;;;;28.25;10.25;;;17.40;99.90;;;;;;5045536;28;20045;-59
2023/10/09 10:42:33;;;;;;;17.25;8.90;;;17.50;99.90;;;;;;5043351;28;20033;-60
2023/10/09 10:45:25;;;;;;;25.63;10.25;;;17.60;99.90;;;;;;5043766;28;20076;-59
2023/10/09 10:47:49;;;;;;;19.25;8.93;;;17.70;99.90;;;;;;5044228;28;20045;-59
2023/10/09 10:53:14;;;;;;;20.38;9.07;;;17.80;99.90;;;;;;5047552;28;20159;-59
2023/10/09 10:55:58;;;;;;;20.40;9.23;;;17.90;99.90;;;;;;5042919;28;20474;-59
2023/10/09 10:58:24;;;;;;;16.67;8.05;;;17.90;99.90;;;;;;5047601;28;20041;-59
2023/10/09 11:03:29;;;;;;;25.98;8.98;;;18.00;99.90;;;;;;5044456;28;20565;-59
2023/10/09 11:05:55;;;;;;;22.58;9.05;;;18.00;99.90;;;;;;5040691;28;20067;-59
2023/10/09 11:08:32;;;;;;;24.80;9.20;;;18.00;99.90;;;;;;5046181;28;20087;-59
2023/10/09 11:11:15;;;;;;;19.73;8.10;;;18.00;99.90;;;;;;5041630;28;20128;-59
2023/10/09 11:13:53;;;;;;;18.00;7.72;;;17.90;99.90;;;;;;5044944;28;20610;-59
2023/10/09 11:16:32;;;;;;;18.17;7.65;;;17.90;99.90;;;;;;5043684;28;20037;-59
2023/10/09 11:19:03;;;;;;;20.23;7.55;;;17.90;99.90;;;;;;5046573;28;20025;-59
2023/10/09 11:21:40;;;;;;;19.88;7.25;;;17.90;99.90;;;;;;5044233;28;20036;-58
2023/10/09 11:24:26;;;;;;;22.35;7.95;;;17.90;99.90;;;;;;5047110;28;20044;-59
2023/10/09 11:26:55;;;;;;;21.23;7.57;;;17.90;99.90;;;;;;5041150;28;20191;-60
2023/10/09 11:32:22;;;;;;;13.35;6.97;;;18.00;99.90;;;;;;5046696;28;20032;-58
2023/10/09 11:34:51;;;;;;;17.33;6.78;;;18.00;99.90;;;;;;5044659;28;20049;-59
2023/10/09 11:37:31;;;;;;;15.13;6.32;;;18.00;99.90;;;;;;5046490;28;20048;-59
2023/10/09 11:39:58;;;;;;;13.02;6.13;;;18.10;99.90;;;;;;5046141;28;20029;-59
2023/10/09 11:42:35;;;;;;;18.30;7.72;;;18.10;99.90;;;;;;5043044;28;20118;-58
2023/10/09 11:45:24;;;;;;;20.20;7.07;;;18.20;99.90;;;;;;5042018;28;20044;-59
2023/10/09 11:47:57;;;;;;;14.50;7.10;;;18.20;99.90;;;;;;5044520;28;20095;-59
2023/10/09 11:50:42;;;;;;;13.85;7.32;;;18.20;99.90;;;;;;5042273;28;20051;-59
2023/10/09 11:53:09;;;;;;;10.85;6.35;;;18.20;99.90;;;;;;5041768;28;20064;-59
2023/10/09 11:55:36;;;;;;;23.42;8.18;;;18.30;99.90;;;;;;5036881;28;20483;-58
2023/10/09 11:58:04;;;;;;;20.58;6.68;;;18.20;99.90;;;;;;5044091;28;20064;-58
2023/10/09 12:00:44;;;;;;;10.93;5.32;;;18.30;99.90;;;;;;5044448;28;20071;-59
2023/10/09 12:03:10;;;;;;;12.77;6.07;;;18.30;99.90;;;;;;5040123;28;20028;-59
2023/10/09 12:05:35;;;;;;;15.23;6.07;;;18.30;99.90;;;;;;5041022;28;20037;-59
2023/10/09 12:08:03;;;;;;;12.50;6.30;;;18.40;99.90;;;;;;5044800;28;20090;-58
2023/10/09 12:10:29;;;;;;;6.90;5.47;;;18.40;99.90;;;;;;5045333;28;20055;-60
2023/10/09 12:12:57;;;;;;;17.73;5.80;;;18.40;99.90;;;;;;5042302;28;20079;-60
2023/10/09 12:15:36;;;;;;;16.30;6.20;;;18.50;99.90;;;;;;5037685;28;20106;-59
2023/10/09 12:18:04;;;;;;;6.47;4.47;;;18.50;99.90;;;;;;5042359;28;20045;-59
2023/10/09 12:20:32;;;;;;;12.40;5.30;;;18.50;99.90;;;;;;5039365;28;20029;-59
2023/10/09 12:23:04;;;;;;;9.30;5.05;;;18.40;99.90;;;;;;5044409;28;20037;-60
2023/10/09 12:25:31;;;;;;;9.52;4.97;;;18.40;99.90;;;;;;5045765;28;20518;-58
2023/10/09 12:28:01;;;;;;;15.73;6.07;;;18.40;99.90;;;;;;5046959;28;20446;-59
2023/10/09 12:30:29;;;;;;;14.40;4.97;;;18.40;99.90;;;;;;5047123;28;20519;-58
2023/10/09 12:32:58;;;;;;;13.60;5.03;;;18.40;99.90;;;;;;5040873;28;20065;-59
2023/10/09 12:35:28;;;;;;;14.52;5.00;;;18.40;99.90;;;;;;5046039;28;20028;-58
2023/10/09 12:37:54;;;;;;;8.77;4.68;;;18.40;99.90;;;;;;5040508;28;20128;-59
2023/10/09 12:40:30;;;;;;;12.50;5.32;;;18.30;99.90;;;;;;5027839;28;20033;-60
2023/10/09 12:42:59;;;;;;;8.88;3.60;;;18.30;99.90;;;;;;5043516;28;20080;-60
2023/10/09 12:45:26;;;;;;;5.25;3.03;;;18.30;99.90;;;;;;5041327;28;20581;-60
2023/10/09 12:47:53;;;;;;;7.93;3.67;;;18.30;99.90;;;;;;5041570;28;20033;-60
2023/10/09 12:50:27;;;;;;;14.02;3.92;;;18.30;99.90;;;;;;5040932;28;20455;-59
2023/10/09 12:53:01;;;;;;;9.80;3.50;;;18.30;99.90;;;;;;5042606;28;20084;-60
2023/10/09 12:55:31;;;;;;;11.88;3.22;;;18.40;99.90;;;;;;5044203;28;20500;-58
2023/10/09 12:58:00;;;;;;;8.38;3.10;;;18.40;99.90;;;;;;5047464;28;20108;-60
2023/10/09 13:00:26;;;;;;;7.00;2.63;;;18.50;99.90;;;;;;5040970;28;20055;-60
2023/10/09 13:02:52;;;;;;;12.48;4.18;;;18.60;99.90;;;;;;5041890;28;20044;-59
2023/10/09 13:05:26;;;;;;;8.32;3.25;;;18.60;99.90;;;;;;5042893;28;20036;-60
2023/10/09 13:07:53;;;;;;;9.63;3.28;;;18.70;99.90;;;;;;5043580;28;20040;-60
2023/10/09 13:10:19;;;;;;;10.80;3.13;;;18.80;99.90;;;;;;5045947;28;20098;-60
2023/10/09 13:12:45;;;;;;;9.52;3.45;;;18.90;99.90;;;;;;5045628;28;21107;-60
2023/10/09 13:15:11;;;;;;;15.27;3.10;;;19.00;99.90;;;;;;5041969;28;20704;-60
2023/10/09 13:17:38;;;;;;;6.30;2.80;;;19.10;99.90;;;;;;5041353;28;20061;-59
2023/10/09 13:20:14;;;;;;;10.05;2.85;;;19.30;99.90;;;;;;5041965;28;20045;-59
2023/10/09 13:22:41;;;;;;;6.60;2.88;;;19.40;99.90;;;;;;5039860;28;20029;-59
2023/10/09 13:25:16;;;;;;;5.78;1.90;;;19.50;99.90;;;;;;5047267;28;20047;-60
2023/10/09 13:27:50;;;;;;;6.30;1.88;;;19.50;99.90;;;;;;5042408;28;20044;-59
2023/10/09 13:30:21;;;;;;;5.18;1.80;;;19.60;99.90;;;;;;5043283;28;20522;-60
2023/10/09 13:32:49;;;;;;;6.10;1.77;;;19.60;99.90;;;;;;5040943;28;20688;-59
2023/10/09 13:35:18;;;;;;;7.03;1.45;;;19.70;99.90;;;;;;5039227;28;20504;-59
2023/10/09 13:37:53;;;;;;;5.85;1.55;;;19.70;99.90;;;;;;5043882;28;20044;-59
2023/10/09 13:40:26;;;;;;;7.50;1.30;;;19.70;99.90;;;;;;5047772;28;20048;-59
2023/10/09 13:42:58;;;;;;;3.28;1.15;;;19.60;99.90;;;;;;5044632;28;20526;-60
2023/10/09 13:45:27;;;;;;;4.45;1.45;;;19.60;99.90;;;;;;5046076;28;20680;-59
2023/10/09 13:47:56;;;;;;;5.93;1.65;;;19.50;99.90;;;;;;5048551;28;20071;-59
2023/10/09 13:50:32;;;;;;;6.55;1.73;;;19.40;99.90;;;;;;5048140;28;20041;-59
2023/10/09 13:52:57;;;;;;;8.38;1.83;;;19.40;99.90;;;;;;5049941;28;20041;-58
2023/10/09 13:55:31;;;;;;;6.57;2.13;;;19.40;99.90;;;;;;5048089;28;20045;-59
2023/10/09 13:57:57;;;;;;;6.10;2.10;;;19.30;99.90;;;;;;5041697;28;20041;-59
2023/10/09 14:01:08;;;;;;;9.43;2.05;;;19.30;99.90;;;;;;5056869;28;20041;-59
2023/10/09 14:03:13;;;;;;;5.55;1.95;;;19.30;99.90;;;;;;5038034;28;20513;-60
2023/10/09 14:05:51;;;;;;;11.48;2.85;;;19.30;99.90;;;;;;5045996;28;20252;-60
2023/10/09 14:08:19;;;;;;;5.18;1.55;;;19.30;99.90;;;;;;5044078;28;20055;-60
2023/10/09 14:10:48;;;;;;;5.78;1.83;;;19.30;99.90;;;;;;5044509;28;20040;-60
2023/10/09 14:13:17;;;;;;;7.30;1.67;;;19.30;99.90;;;;;;5049041;28;20063;-61
2023/10/09 14:15:45;;;;;;;4.32;1.83;;;19.40;99.90;;;;;;5045677;28;20048;-60
2023/10/09 14:18:11;;;;;;;10.63;1.48;;;19.50;99.90;;;;;;5047916;28;20040;-60
2023/10/09 14:20:37;;;;;;;;;;;19.50;99.90;;;;;;5037044;28;20037;-60
2023/10/09 14:23:06;;;;;;;5.25;1.00;;;19.60;99.90;;;;;;5045725;28;20070;-60
2023/10/09 14:25:39;;;;;;;4.50;1.10;;;19.60;99.90;;;;;;5044525;28;20109;-60
2023/10/09 14:28:09;;;;;;;6.18;1.08;;;19.60;99.90;;;;;;5045233;28;20517;-61
2023/10/09 14:30:41;;;;;;;4.28;1.17;;;19.50;99.90;;;;;;5045167;28;20128;-59
2023/10/09 14:33:14;;;;;;;8.05;1.75;;;19.50;99.90;;;;;;5046601;28;20042;-59
2023/10/09 14:35:44;;;;;;;5.80;1.88;;;19.50;99.90;;;;;;5046203;28;20451;-59
2023/10/09 14:38:15;;;;;;;8.40;1.20;;;19.50;99.90;;;;;;5047831;28;20029;-59
2023/10/09 14:40:43;;;;;;;6.15;1.50;;;19.40;99.90;;;;;;5045181;28;20037;-60
2023/10/09 14:43:18;;;;;;;6.60;1.55;;;19.40;99.90;;;;;;5049822;28;20535;-60
2023/10/09 14:45:48;;;;;;;13.70;2.10;;;19.30;99.90;;;;;;5048394;28;20112;-59
2023/10/09 14:48:18;;;;;;;4.78;1.48;;;19.30;99.90;;;;;;5049269;28;20146;-60
2023/10/09 14:50:53;;;;;;;9.63;1.92;;;19.20;99.90;;;;;;5047369;28;20064;-60
2023/10/09 14:53:19;;;;;;;13.10;2.67;;;19.20;99.90;;;;;;5047199;28;20036;-59
2023/10/09 14:55:47;;;;;;;8.05;2.00;;;19.10;99.90;;;;;;5047583;28;20067;-58
2023/10/09 14:58:13;;;;;;;12.50;2.70;;;19.00;99.90;;;;;;5050379;28;20531;-60
2023/10/09 15:00:46;;;;;;;;;;;19.00;99.90;;;;;;5049146;28;20037;-60
2023/10/09 15:03:14;;;;;;;7.30;2.50;;;18.80;99.90;;;;;;5049236;28;19916;-59
2023/10/09 15:05:43;;;;;;;5.30;2.50;;;18.70;99.90;;;;;;5055891;28;20714;-59
2023/10/09 15:08:13;;;;;;;10.10;2.60;;;18.70;99.90;;;;;;5061242;28;20037;-58
2023/10/09 15:10:51;;;;;;;9.38;3.65;;;18.60;99.90;;;;;;5055311;28;20033;-59
2023/10/09 15:13:17;;;;;;;5.05;2.33;;;18.60;99.90;;;;;;5054419;28;20597;-59
2023/10/09 15:15:44;;;;;;;12.02;2.83;;;18.60;99.90;;;;;;5062359;28;20040;-60
2023/10/09 15:18:13;;;;;;;11.93;2.97;;;18.60;99.90;;;;;;5062481;28;20036;-59
2023/10/09 15:20:39;;;;;;;9.70;2.88;;;18.60;99.90;;;;;;5063593;28;20033;-60
2023/10/09 15:23:07;;;;;;;14.98;3.03;;;18.60;99.90;;;;;;5044992;28;20258;-59
2023/10/09 15:25:34;;;;;;;13.48;3.25;;;18.50;99.90;;;;;;5050755;28;20059;-57
2023/10/09 15:28:00;;;;;;;9.00;3.20;;;18.50;99.90;;;;;;5049566;28;20391;-59
2023/10/09 15:30:26;;;;;;;14.70;3.40;;;18.50;99.90;;;;;;5048125;28;20589;-60